Union Mills, Pennsylvania
Current Conditions -  °F | °C
As of 2:35 AM on Monday 22 Dec 2014 (Local Time) from KUNV Reporting Station
Scattered Clouds Scattered Clouds  
Wind Chill: 20°   Ceiling: Unl
Heat Index: 20°   Visibility: 7mi
Dew Point: 19°   Wind: 0mph
Humidity: 94%   Direction: NA
Pressure: 30.26"   Gusts: NA
Location:  40.5962°N, 77.7424°W
Report Text: KUNV 220735Z AUTO 00000KT 7SM SCT080 M07/M07 A3026 RMK AO2 T10661074
Loading
Personal Weather Stations






























Interactive Weather Map New forecast layout! Learn more

10-Day Weather Forecast

Advertisements
Track Severe Weather on mobile